aviador You're here:

PAHN Decoded Metar

HAINES in AK, USA
Report Time2017-08-18 17:54:00
UTC Time2017-08-18 18:18:47
Flight Rules mvfr MVFR
Wind180° at 03 kt
W.Decomp.*RWY 08: 0.5 kt HW 3.0 kt RCW
W.Rank180° ranks 24
Current wind is below 180° avg. (4.0)
Visibility9999 m
Phenomena:N/A
Clouds:Few 005 Hf
Scattered 018 Hf
Overcast 027 Hf
Expected CloudBase > 400 ft AGL from Temp-Dew spread
Ceiling2,700 ft
Temp12°C (ISA -3)
Dew Point11°C (94% RH)
AAT11.3°C
QNH1009 hPa
Density Alt-26 ft
Elevation16 ft
Report Wrong Elevation
Raw Report
PAHN 181754Z AUTO 18003KT 10SM FEW005 SCT018 OVC027 12/11 A2979
RMK AO2 SLP090 60001 T01220111 10122 20100 52020 TSNO=

Extra information for PAHN:More info

Metar Taf Metar & Taf Last 4 Metars F.Rules Stats Wind Profile Meteogram Temp Stats Airport Information Weather charts Add Link Nearby VenuesMetar ALERT Operation Metar Decoded Social comments

AIRNAV info for PAHN